This is the latest recevied weather packets stored in our database for station/object CX2SA-13. If no packets are shown the sender has not sent any weather packets the latest 10 day(s).
| Time | Temp. | Humidity | Pressure | Rain* | Wind** | Luminosity | Snow |
|---|---|---|---|---|---|---|---|
| 1777627784 | 15.56° C | 93% | 1008.1 hPa | 2.54 mm | - | - | - |
| 1777626885 | 16.67° C | 83% | 1008.1 hPa | 0 mm | - | - | - |
| 1777625986 | 16.67° C | 83% | 1008.1 hPa | 0 mm | - | - | - |
| 1777625084 | 16.67° C | 79% | 1008.1 hPa | 0 mm | - | - | - |
| 1777624185 | 16.67° C | 79% | 1008.1 hPa | 0 mm | - | - | - |
| 1777623283 | 16.67° C | 77% | 1007.7 hPa | 0 mm | - | - | - |
| 1777622384 | 17.22° C | 76% | 1007.7 hPa | 0 mm | - | - | - |
| 1777621485 | 17.22° C | 76% | 1007.4 hPa | 0 mm | - | - | - |
| 1777620584 | 17.22° C | 75% | 1008.1 hPa | 0 mm | - | - | - |
| 1777619685 | 17.22° C | 75% | 1008.4 hPa | 0 mm | - | - | - |
| 1777618785 | 17.22° C | 75% | 1008.4 hPa | 0 mm | - | - | - |
| 1777617884 | 17.22° C | 76% | 1008.4 hPa | 0 mm | - | - | - |
| 1777616985 | 17.22° C | 74% | 1009.1 hPa | 0 mm | - | - | - |
| 1777616086 | 17.78° C | 73% | 1009.1 hPa | 0 mm | - | - | - |
| 1777615184 | 17.78° C | 72% | 1009.1 hPa | 0 mm | - | - | - |
| 1777614285 | 17.78° C | 72% | 1009.1 hPa | 0 mm | - | - | - |
| 1777613384 | 17.22° C | 72% | 1009.4 hPa | 0 mm | - | - | - |
| 1777612485 | 17.22° C | 72% | 1009.1 hPa | 0 mm | - | - | - |
| 1777611585 | 17.22° C | 72% | 1009.1 hPa | 0 mm | - | - | - |
| 1777610684 | 17.22° C | 72% | 1009.4 hPa | 0 mm | - | - | - |
| 1777609785 | 16.67° C | 72% | 1009.4 hPa | 0 mm | - | - | - |
| 1777608886 | 16.67° C | 72% | 1009.4 hPa | 0 mm | - | - | - |
| 1777607984 | 17.22° C | 71% | 1009.8 hPa | 0 mm | - | - | - |
| 1777607085 | 17.78° C | 69% | 1009.8 hPa | 0 mm | - | - | - |
| 1777606184 | 17.78° C | 69% | 1009.8 hPa | 0 mm | - | - | - |
* Rain since midnight (hover to see other rain measurements)
** Current wind speed in m/s (hover to see current wind gust speed)